sensor_id;sensor_type;location;lat;lon;timestamp;P1;durP1;ratioP1;P2;durP2;ratioP2
11016;SDS011;54687;50.800;6.772;2022-11-03T00:01:02;7.00;;;3.40;;
11016;SDS011;54687;50.800;6.772;2022-11-03T00:03:29;6.78;;;3.10;;
11016;SDS011;54687;50.800;6.772;2022-11-03T00:05:56;7.40;;;3.33;;
11016;SDS011;54687;50.800;6.772;2022-11-03T00:08:34;9.80;;;3.97;;
11016;SDS011;54687;50.800;6.772;2022-11-03T00:11:03;8.98;;;3.65;;
11016;SDS011;54687;50.800;6.772;2022-11-03T00:13:30;6.93;;;3.38;;
11016;SDS011;54687;50.800;6.772;2022-11-03T00:15:57;7.90;;;3.30;;
11016;SDS011;54687;50.800;6.772;2022-11-03T00:18:24;8.55;;;3.95;;
11016;SDS011;54687;50.800;6.772;2022-11-03T00:20:57;7.18;;;3.30;;
11016;SDS011;54687;50.800;6.772;2022-11-03T00:23:28;10.27;;;3.47;;
11016;SDS011;54687;50.800;6.772;2022-11-03T00:26:03;11.65;;;3.53;;
11016;SDS011;54687;50.800;6.772;2022-11-03T00:28:31;5.38;;;3.30;;
11016;SDS011;54687;50.800;6.772;2022-11-03T00:30:59;6.93;;;3.33;;
11016;SDS011;54687;50.800;6.772;2022-11-03T00:33:26;7.70;;;3.78;;
11016;SDS011;54687;50.800;6.772;2022-11-03T00:35:56;8.75;;;3.50;;
11016;SDS011;54687;50.800;6.772;2022-11-03T00:38:23;9.50;;;4.25;;
11016;SDS011;54687;50.800;6.772;2022-11-03T00:40:54;11.30;;;3.85;;
11016;SDS011;54687;50.800;6.772;2022-11-03T00:43:22;12.38;;;4.38;;
11016;SDS011;54687;50.800;6.772;2022-11-03T00:45:51;8.90;;;3.63;;
11016;SDS011;54687;50.800;6.772;2022-11-03T00:48:18;9.35;;;3.97;;
11016;SDS011;54687;50.800;6.772;2022-11-03T00:50:59;7.78;;;3.67;;
11016;SDS011;54687;50.800;6.772;2022-11-03T00:53:30;11.30;;;4.07;;
11016;SDS011;54687;50.800;6.772;2022-11-03T00:55:58;7.28;;;3.38;;
11016;SDS011;54687;50.800;6.772;2022-11-03T00:58:26;10.82;;;3.50;;
11016;SDS011;54687;50.800;6.772;2022-11-03T01:01:00;9.15;;;3.60;;
11016;SDS011;54687;50.800;6.772;2022-11-03T01:03:30;11.73;;;3.50;;
11016;SDS011;54687;50.800;6.772;2022-11-03T01:05:57;10.57;;;3.83;;
11016;SDS011;54687;50.800;6.772;2022-11-03T01:08:41;8.57;;;3.45;;
11016;SDS011;54687;50.800;6.772;2022-11-03T01:11:08;9.63;;;3.45;;
11016;SDS011;54687;50.800;6.772;2022-11-03T01:13:56;6.95;;;2.75;;
11016;SDS011;54687;50.800;6.772;2022-11-03T01:16:23;6.50;;;2.80;;
11016;SDS011;54687;50.800;6.772;2022-11-03T01:18:50;7.22;;;3.53;;
11016;SDS011;54687;50.800;6.772;2022-11-03T01:21:17;11.90;;;3.60;;
11016;SDS011;54687;50.800;6.772;2022-11-03T01:23:44;11.43;;;3.72;;
11016;SDS011;54687;50.800;6.772;2022-11-03T01:26:11;7.18;;;3.42;;
11016;SDS011;54687;50.800;6.772;2022-11-03T01:28:39;8.60;;;3.00;;
11016;SDS011;54687;50.800;6.772;2022-11-03T01:31:10;9.23;;;3.92;;
11016;SDS011;54687;50.800;6.772;2022-11-03T01:33:39;5.80;;;2.85;;
11016;SDS011;54687;50.800;6.772;2022-11-03T01:36:07;9.25;;;3.60;;
11016;SDS011;54687;50.800;6.772;2022-11-03T01:38:34;7.18;;;3.08;;
11016;SDS011;54687;50.800;6.772;2022-11-03T01:41:02;7.72;;;3.20;;
11016;SDS011;54687;50.800;6.772;2022-11-03T01:43:30;10.20;;;3.17;;
11016;SDS011;54687;50.800;6.772;2022-11-03T01:45:58;7.13;;;3.50;;
11016;SDS011;54687;50.800;6.772;2022-11-03T01:48:30;6.78;;;3.20;;
11016;SDS011;54687;50.800;6.772;2022-11-03T01:51:00;9.05;;;3.63;;
11016;SDS011;54687;50.800;6.772;2022-11-03T01:53:28;7.57;;;3.15;;
11016;SDS011;54687;50.800;6.772;2022-11-03T01:55:55;9.20;;;3.13;;
11016;SDS011;54687;50.800;6.772;2022-11-03T01:58:25;8.40;;;3.45;;
11016;SDS011;54687;50.800;6.772;2022-11-03T02:00:55;9.55;;;4.15;;
11016;SDS011;54687;50.800;6.772;2022-11-03T02:03:23;8.50;;;3.42;;
11016;SDS011;54687;50.800;6.772;2022-11-03T02:05:54;8.60;;;3.70;;
11016;SDS011;54687;50.800;6.772;2022-11-03T02:08:22;9.73;;;3.75;;
11016;SDS011;54687;50.800;6.772;2022-11-03T02:10:53;9.13;;;3.83;;
11016;SDS011;54687;50.800;6.772;2022-11-03T02:13:20;11.38;;;4.10;;
11016;SDS011;54687;50.800;6.772;2022-11-03T02:15:49;9.55;;;3.72;;
11016;SDS011;54687;50.800;6.772;2022-11-03T02:18:18;9.30;;;4.05;;
11016;SDS011;54687;50.800;6.772;2022-11-03T02:20:49;7.93;;;3.60;;
11016;SDS011;54687;50.800;6.772;2022-11-03T02:23:27;8.65;;;3.30;;
11016;SDS011;54687;50.800;6.772;2022-11-03T02:26:03;8.27;;;3.70;;
11016;SDS011;54687;50.800;6.772;2022-11-03T02:28:33;9.13;;;3.85;;
11016;SDS011;54687;50.800;6.772;2022-11-03T02:31:03;7.18;;;3.33;;
11016;SDS011;54687;50.800;6.772;2022-11-03T02:33:36;9.48;;;3.38;;
11016;SDS011;54687;50.800;6.772;2022-11-03T02:36:14;8.38;;;3.53;;
11016;SDS011;54687;50.800;6.772;2022-11-03T02:38:46;7.80;;;3.40;;
11016;SDS011;54687;50.800;6.772;2022-11-03T02:41:20;10.93;;;3.97;;
11016;SDS011;54687;50.800;6.772;2022-11-03T02:43:48;9.65;;;3.35;;
11016;SDS011;54687;50.800;6.772;2022-11-03T02:46:17;8.40;;;3.78;;
11016;SDS011;54687;50.800;6.772;2022-11-03T02:48:44;8.95;;;3.55;;
11016;SDS011;54687;50.800;6.772;2022-11-03T02:51:12;9.07;;;3.47;;
11016;SDS011;54687;50.800;6.772;2022-11-03T02:53:41;7.32;;;3.30;;
11016;SDS011;54687;50.800;6.772;2022-11-03T02:56:11;10.10;;;3.95;;
11016;SDS011;54687;50.800;6.772;2022-11-03T02:58:46;11.70;;;3.63;;
11016;SDS011;54687;50.800;6.772;2022-11-03T03:01:21;14.48;;;4.40;;
11016;SDS011;54687;50.800;6.772;2022-11-03T03:03:54;8.55;;;4.22;;
11016;SDS011;54687;50.800;6.772;2022-11-03T03:06:24;8.05;;;3.88;;
11016;SDS011;54687;50.800;6.772;2022-11-03T03:08:54;6.03;;;3.42;;
11016;SDS011;54687;50.800;6.772;2022-11-03T03:11:24;8.25;;;3.63;;
11016;SDS011;54687;50.800;6.772;2022-11-03T03:14:06;6.95;;;3.55;;
11016;SDS011;54687;50.800;6.772;2022-11-03T03:16:40;8.35;;;4.13;;
11016;SDS011;54687;50.800;6.772;2022-11-03T03:19:16;6.05;;;3.38;;
11016;SDS011;54687;50.800;6.772;2022-11-03T03:21:48;9.23;;;3.70;;
11016;SDS011;54687;50.800;6.772;2022-11-03T03:24:19;10.23;;;3.78;;
11016;SDS011;54687;50.800;6.772;2022-11-03T03:26:57;14.45;;;4.43;;
11016;SDS011;54687;50.800;6.772;2022-11-03T03:29:32;9.65;;;3.75;;
11016;SDS011;54687;50.800;6.772;2022-11-03T03:32:05;9.00;;;3.55;;
11016;SDS011;54687;50.800;6.772;2022-11-03T03:34:34;8.75;;;3.83;;
11016;SDS011;54687;50.800;6.772;2022-11-03T03:37:04;8.13;;;3.47;;
11016;SDS011;54687;50.800;6.772;2022-11-03T03:39:34;7.80;;;3.60;;
11016;SDS011;54687;50.800;6.772;2022-11-03T03:42:03;11.25;;;4.05;;
11016;SDS011;54687;50.800;6.772;2022-11-03T03:44:34;10.48;;;3.95;;
11016;SDS011;54687;50.800;6.772;2022-11-03T03:47:05;8.25;;;3.67;;
11016;SDS011;54687;50.800;6.772;2022-11-03T03:49:39;10.55;;;3.10;;
11016;SDS011;54687;50.800;6.772;2022-11-03T03:52:06;8.00;;;3.67;;
11016;SDS011;54687;50.800;6.772;2022-11-03T03:54:34;10.35;;;4.07;;
11016;SDS011;54687;50.800;6.772;2022-11-03T03:57:02;7.93;;;3.50;;
11016;SDS011;54687;50.800;6.772;2022-11-03T03:59:30;9.80;;;3.58;;
11016;SDS011;54687;50.800;6.772;2022-11-03T04:01:58;7.93;;;4.05;;
11016;SDS011;54687;50.800;6.772;2022-11-03T04:04:25;8.82;;;4.05;;
11016;SDS011;54687;50.800;6.772;2022-11-03T04:06:51;6.63;;;3.45;;
11016;SDS011;54687;50.800;6.772;2022-11-03T04:09:38;8.30;;;3.78;;
11016;SDS011;54687;50.800;6.772;2022-11-03T04:12:06;9.20;;;3.95;;
11016;SDS011;54687;50.800;6.772;2022-11-03T04:14:50;8.98;;;3.63;;
11016;SDS011;54687;50.800;6.772;2022-11-03T04:17:36;8.77;;;3.88;;
11016;SDS011;54687;50.800;6.772;2022-11-03T04:20:24;10.18;;;4.07;;
11016;SDS011;54687;50.800;6.772;2022-11-03T04:23:09;8.85;;;3.67;;
11016;SDS011;54687;50.800;6.772;2022-11-03T04:25:35;8.73;;;3.88;;
11016;SDS011;54687;50.800;6.772;2022-11-03T04:28:04;11.02;;;3.67;;
11016;SDS011;54687;50.800;6.772;2022-11-03T04:30:33;9.73;;;3.60;;
11016;SDS011;54687;50.800;6.772;2022-11-03T04:33:01;8.10;;;3.67;;
11016;SDS011;54687;50.800;6.772;2022-11-03T04:35:28;9.75;;;3.80;;
11016;SDS011;54687;50.800;6.772;2022-11-03T04:37:55;8.20;;;3.67;;
11016;SDS011;54687;50.800;6.772;2022-11-03T04:40:25;8.57;;;4.40;;
11016;SDS011;54687;50.800;6.772;2022-11-03T04:42:52;8.07;;;3.53;;
11016;SDS011;54687;50.800;6.772;2022-11-03T04:45:21;10.27;;;4.18;;
11016;SDS011;54687;50.800;6.772;2022-11-03T04:47:49;9.32;;;3.17;;
11016;SDS011;54687;50.800;6.772;2022-11-03T04:50:20;9.52;;;3.35;;
11016;SDS011;54687;50.800;6.772;2022-11-03T04:52:48;7.80;;;3.47;;
11016;SDS011;54687;50.800;6.772;2022-11-03T04:55:20;11.02;;;4.45;;
11016;SDS011;54687;50.800;6.772;2022-11-03T04:57:46;9.88;;;3.95;;
11016;SDS011;54687;50.800;6.772;2022-11-03T05:00:14;8.02;;;3.58;;
11016;SDS011;54687;50.800;6.772;2022-11-03T05:02:42;8.93;;;3.67;;
11016;SDS011;54687;50.800;6.772;2022-11-03T05:05:16;7.90;;;3.45;;
11016;SDS011;54687;50.800;6.772;2022-11-03T05:07:46;8.60;;;3.67;;
11016;SDS011;54687;50.800;6.772;2022-11-03T05:10:15;9.18;;;3.50;;
11016;SDS011;54687;50.800;6.772;2022-11-03T05:12:43;11.13;;;3.88;;
11016;SDS011;54687;50.800;6.772;2022-11-03T05:15:22;9.15;;;3.88;;
11016;SDS011;54687;50.800;6.772;2022-11-03T05:17:54;6.90;;;3.38;;
11016;SDS011;54687;50.800;6.772;2022-11-03T05:20:28;8.45;;;3.80;;
11016;SDS011;54687;50.800;6.772;2022-11-03T05:22:57;9.57;;;3.95;;
11016;SDS011;54687;50.800;6.772;2022-11-03T05:25:30;9.90;;;3.60;;
11016;SDS011;54687;50.800;6.772;2022-11-03T05:28:04;8.02;;;4.18;;
11016;SDS011;54687;50.800;6.772;2022-11-03T05:30:39;10.50;;;4.05;;
11016;SDS011;54687;50.800;6.772;2022-11-03T05:33:11;8.68;;;3.67;;
11016;SDS011;54687;50.800;6.772;2022-11-03T05:35:53;8.50;;;3.90;;
11016;SDS011;54687;50.800;6.772;2022-11-03T05:38:20;10.27;;;4.20;;
11016;SDS011;54687;50.800;6.772;2022-11-03T05:40:49;9.68;;;4.20;;
11016;SDS011;54687;50.800;6.772;2022-11-03T05:43:17;11.50;;;4.00;;
11016;SDS011;54687;50.800;6.772;2022-11-03T05:45:45;5.55;;;3.38;;
11016;SDS011;54687;50.800;6.772;2022-11-03T05:48:14;8.48;;;3.83;;
11016;SDS011;54687;50.800;6.772;2022-11-03T05:50:46;11.93;;;4.13;;
11016;SDS011;54687;50.800;6.772;2022-11-03T05:53:25;8.45;;;3.25;;
11016;SDS011;54687;50.800;6.772;2022-11-03T05:55:53;10.38;;;3.72;;
11016;SDS011;54687;50.800;6.772;2022-11-03T05:58:23;10.20;;;4.15;;
11016;SDS011;54687;50.800;6.772;2022-11-03T06:00:52;11.20;;;3.80;;
11016;SDS011;54687;50.800;6.772;2022-11-03T06:03:22;11.45;;;3.97;;
11016;SDS011;54687;50.800;6.772;2022-11-03T06:05:50;10.80;;;3.97;;
11016;SDS011;54687;50.800;6.772;2022-11-03T06:08:18;12.00;;;4.20;;
11016;SDS011;54687;50.800;6.772;2022-11-03T06:10:49;5.85;;;3.58;;
11016;SDS011;54687;50.800;6.772;2022-11-03T06:13:18;8.32;;;3.58;;
11016;SDS011;54687;50.800;6.772;2022-11-03T06:15:48;8.85;;;3.55;;
11016;SDS011;54687;50.800;6.772;2022-11-03T06:18:19;9.18;;;3.70;;
11016;SDS011;54687;50.800;6.772;2022-11-03T06:20:50;12.38;;;4.13;;
11016;SDS011;54687;50.800;6.772;2022-11-03T06:23:19;8.77;;;4.07;;
11016;SDS011;54687;50.800;6.772;2022-11-03T06:25:46;11.00;;;4.20;;
11016;SDS011;54687;50.800;6.772;2022-11-03T06:28:19;11.13;;;4.18;;
11016;SDS011;54687;50.800;6.772;2022-11-03T06:30:47;8.07;;;4.00;;
11016;SDS011;54687;50.800;6.772;2022-11-03T06:33:15;14.23;;;4.53;;
11016;SDS011;54687;50.800;6.772;2022-11-03T06:35:45;9.52;;;3.88;;
11016;SDS011;54687;50.800;6.772;2022-11-03T06:38:14;12.05;;;4.22;;
11016;SDS011;54687;50.800;6.772;2022-11-03T06:40:44;11.27;;;3.90;;
11016;SDS011;54687;50.800;6.772;2022-11-03T06:43:20;12.35;;;3.58;;
11016;SDS011;54687;50.800;6.772;2022-11-03T06:45:50;13.35;;;3.53;;
11016;SDS011;54687;50.800;6.772;2022-11-03T06:48:22;7.72;;;3.75;;
11016;SDS011;54687;50.800;6.772;2022-11-03T06:50:51;7.32;;;3.78;;
11016;SDS011;54687;50.800;6.772;2022-11-03T06:53:19;8.68;;;3.75;;
11016;SDS011;54687;50.800;6.772;2022-11-03T06:55:49;10.57;;;4.07;;
11016;SDS011;54687;50.800;6.772;2022-11-03T06:58:18;8.95;;;3.85;;
11016;SDS011;54687;50.800;6.772;2022-11-03T07:00:50;8.15;;;4.07;;
11016;SDS011;54687;50.800;6.772;2022-11-03T07:03:20;8.20;;;3.67;;
11016;SDS011;54687;50.800;6.772;2022-11-03T07:05:49;7.35;;;3.67;;
11016;SDS011;54687;50.800;6.772;2022-11-03T07:08:18;11.18;;;4.10;;
11016;SDS011;54687;50.800;6.772;2022-11-03T07:10:50;9.80;;;4.80;;
11016;SDS011;54687;50.800;6.772;2022-11-03T07:13:24;8.48;;;4.13;;
11016;SDS011;54687;50.800;6.772;2022-11-03T07:15:52;8.02;;;4.35;;
11016;SDS011;54687;50.800;6.772;2022-11-03T07:18:20;8.85;;;3.72;;
11016;SDS011;54687;50.800;6.772;2022-11-03T07:20:49;13.52;;;4.75;;
11016;SDS011;54687;50.800;6.772;2022-11-03T07:23:18;8.27;;;4.07;;
11016;SDS011;54687;50.800;6.772;2022-11-03T07:25:51;10.68;;;4.10;;
11016;SDS011;54687;50.800;6.772;2022-11-03T07:28:20;5.65;;;4.13;;
11016;SDS011;54687;50.800;6.772;2022-11-03T07:30:49;9.93;;;4.25;;
11016;SDS011;54687;50.800;6.772;2022-11-03T07:33:17;8.07;;;3.40;;
11016;SDS011;54687;50.800;6.772;2022-11-03T07:35:46;9.13;;;4.15;;
11016;SDS011;54687;50.800;6.772;2022-11-03T07:38:14;9.57;;;4.57;;
11016;SDS011;54687;50.800;6.772;2022-11-03T07:40:43;7.63;;;4.13;;
11016;SDS011;54687;50.800;6.772;2022-11-03T07:43:12;7.28;;;3.90;;
11016;SDS011;54687;50.800;6.772;2022-11-03T07:45:42;8.43;;;4.78;;
11016;SDS011;54687;50.800;6.772;2022-11-03T07:48:17;9.65;;;4.68;;
11016;SDS011;54687;50.800;6.772;2022-11-03T07:50:46;10.65;;;4.85;;
11016;SDS011;54687;50.800;6.772;2022-11-03T07:53:14;12.15;;;4.65;;
11016;SDS011;54687;50.800;6.772;2022-11-03T07:55:45;8.25;;;4.68;;
11016;SDS011;54687;50.800;6.772;2022-11-03T07:58:23;10.73;;;4.65;;
11016;SDS011;54687;50.800;6.772;2022-11-03T08:00:54;12.05;;;4.60;;
11016;SDS011;54687;50.800;6.772;2022-11-03T08:06:11;7.18;;;4.05;;
11016;SDS011;54687;50.800;6.772;2022-11-03T08:08:38;10.82;;;4.13;;
11016;SDS011;54687;50.800;6.772;2022-11-03T08:11:04;10.75;;;4.70;;
11016;SDS011;54687;50.800;6.772;2022-11-03T08:13:33;10.98;;;4.75;;
11016;SDS011;54687;50.800;6.772;2022-11-03T08:15:59;8.70;;;4.32;;
11016;SDS011;54687;50.800;6.772;2022-11-03T08:18:26;7.85;;;4.50;;
11016;SDS011;54687;50.800;6.772;2022-11-03T08:20:53;10.30;;;4.40;;
11016;SDS011;54687;50.800;6.772;2022-11-03T08:23:19;8.27;;;4.35;;
11016;SDS011;54687;50.800;6.772;2022-11-03T08:25:47;8.85;;;4.07;;
11016;SDS011;54687;50.800;6.772;2022-11-03T08:28:13;9.20;;;4.72;;
11016;SDS011;54687;50.800;6.772;2022-11-03T08:30:42;10.85;;;4.38;;
11016;SDS011;54687;50.800;6.772;2022-11-03T08:33:08;10.75;;;4.30;;
11016;SDS011;54687;50.800;6.772;2022-11-03T08:35:35;11.85;;;4.68;;
11016;SDS011;54687;50.800;6.772;2022-11-03T08:38:27;10.50;;;4.40;;
11016;SDS011;54687;50.800;6.772;2022-11-03T08:40:54;11.07;;;4.72;;
11016;SDS011;54687;50.800;6.772;2022-11-03T08:43:22;9.38;;;4.22;;
11016;SDS011;54687;50.800;6.772;2022-11-03T08:45:51;8.40;;;4.30;;
11016;SDS011;54687;50.800;6.772;2022-11-03T08:48:18;9.55;;;4.00;;
11016;SDS011;54687;50.800;6.772;2022-11-03T08:50:46;10.38;;;4.57;;
11016;SDS011;54687;50.800;6.772;2022-11-03T08:53:14;9.18;;;4.70;;
11016;SDS011;54687;50.800;6.772;2022-11-03T08:55:41;10.65;;;4.15;;
11016;SDS011;54687;50.800;6.772;2022-11-03T08:58:07;9.80;;;5.07;;
11016;SDS011;54687;50.800;6.772;2022-11-03T09:00:34;9.40;;;3.95;;
11016;SDS011;54687;50.800;6.772;2022-11-03T09:03:02;7.72;;;3.97;;
11016;SDS011;54687;50.800;6.772;2022-11-03T09:05:29;9.77;;;3.95;;
11016;SDS011;54687;50.800;6.772;2022-11-03T09:07:56;5.55;;;3.10;;
11016;SDS011;54687;50.800;6.772;2022-11-03T09:10:23;9.75;;;3.40;;
11016;SDS011;54687;50.800;6.772;2022-11-03T09:12:51;6.00;;;3.17;;
11016;SDS011;54687;50.800;6.772;2022-11-03T09:15:17;10.18;;;3.40;;
11016;SDS011;54687;50.800;6.772;2022-11-03T09:17:44;8.88;;;3.63;;
11016;SDS011;54687;50.800;6.772;2022-11-03T09:20:12;8.75;;;3.80;;
11016;SDS011;54687;50.800;6.772;2022-11-03T09:22:39;6.57;;;3.20;;
11016;SDS011;54687;50.800;6.772;2022-11-03T09:25:06;8.10;;;3.47;;
11016;SDS011;54687;50.800;6.772;2022-11-03T09:27:33;8.57;;;3.00;;
11016;SDS011;54687;50.800;6.772;2022-11-03T09:30:01;8.32;;;3.20;;
11016;SDS011;54687;50.800;6.772;2022-11-03T09:32:29;6.47;;;3.17;;
11016;SDS011;54687;50.800;6.772;2022-11-03T09:34:56;8.13;;;3.20;;
11016;SDS011;54687;50.800;6.772;2022-11-03T09:37:24;8.35;;;3.63;;
11016;SDS011;54687;50.800;6.772;2022-11-03T09:39:50;8.63;;;3.90;;
11016;SDS011;54687;50.800;6.772;2022-11-03T09:42:17;7.88;;;3.40;;
11016;SDS011;54687;50.800;6.772;2022-11-03T09:44:44;9.27;;;3.97;;
11016;SDS011;54687;50.800;6.772;2022-11-03T09:47:15;11.43;;;3.80;;
11016;SDS011;54687;50.800;6.772;2022-11-03T09:49:47;7.55;;;3.72;;
11016;SDS011;54687;50.800;6.772;2022-11-03T09:54:46;7.32;;;4.10;;
11016;SDS011;54687;50.800;6.772;2022-11-03T09:57:14;8.55;;;3.10;;
11016;SDS011;54687;50.800;6.772;2022-11-03T09:59:42;7.32;;;3.25;;
11016;SDS011;54687;50.800;6.772;2022-11-03T10:02:13;8.57;;;3.53;;
11016;SDS011;54687;50.800;6.772;2022-11-03T10:04:46;7.40;;;3.45;;
11016;SDS011;54687;50.800;6.772;2022-11-03T10:07:12;7.78;;;3.80;;
11016;SDS011;54687;50.800;6.772;2022-11-03T10:09:41;10.05;;;3.30;;
11016;SDS011;54687;50.800;6.772;2022-11-03T10:12:12;3.83;;;2.65;;
11016;SDS011;54687;50.800;6.772;2022-11-03T10:14:39;5.50;;;3.00;;
11016;SDS011;54687;50.800;6.772;2022-11-03T10:17:07;7.82;;;3.30;;
11016;SDS011;54687;50.800;6.772;2022-11-03T10:19:39;7.35;;;3.55;;
11016;SDS011;54687;50.800;6.772;2022-11-03T10:22:06;6.88;;;3.28;;
11016;SDS011;54687;50.800;6.772;2022-11-03T10:24:33;8.73;;;3.28;;
11016;SDS011;54687;50.800;6.772;2022-11-03T10:27:01;6.43;;;3.72;;
11016;SDS011;54687;50.800;6.772;2022-11-03T10:29:30;8.05;;;3.53;;
11016;SDS011;54687;50.800;6.772;2022-11-03T10:31:58;4.28;;;2.80;;
11016;SDS011;54687;50.800;6.772;2022-11-03T10:34:26;7.20;;;3.70;;
11016;SDS011;54687;50.800;6.772;2022-11-03T10:37:09;9.70;;;3.60;;
11016;SDS011;54687;50.800;6.772;2022-11-03T10:39:41;9.05;;;3.95;;
11016;SDS011;54687;50.800;6.772;2022-11-03T10:42:08;8.63;;;3.28;;
11016;SDS011;54687;50.800;6.772;2022-11-03T10:44:44;9.00;;;3.63;;
11016;SDS011;54687;50.800;6.772;2022-11-03T10:47:20;8.45;;;4.30;;
11016;SDS011;54687;50.800;6.772;2022-11-03T10:49:49;7.60;;;3.25;;
11016;SDS011;54687;50.800;6.772;2022-11-03T10:52:17;7.20;;;4.38;;
11016;SDS011;54687;50.800;6.772;2022-11-03T10:54:46;5.60;;;3.70;;
11016;SDS011;54687;50.800;6.772;2022-11-03T10:57:14;6.78;;;3.92;;
11016;SDS011;54687;50.800;6.772;2022-11-03T10:59:43;7.45;;;4.35;;
11016;SDS011;54687;50.800;6.772;2022-11-03T11:02:14;10.82;;;3.85;;
11016;SDS011;54687;50.800;6.772;2022-11-03T11:04:44;9.13;;;4.22;;
11016;SDS011;54687;50.800;6.772;2022-11-03T11:07:17;7.10;;;3.95;;
11016;SDS011;54687;50.800;6.772;2022-11-03T11:09:48;7.45;;;4.70;;
11016;SDS011;54687;50.800;6.772;2022-11-03T11:12:16;11.00;;;6.00;;
11016;SDS011;54687;50.800;6.772;2022-11-03T11:14:57;12.80;;;5.38;;
11016;SDS011;54687;50.800;6.772;2022-11-03T11:20:17;7.00;;;3.28;;
11016;SDS011;54687;50.800;6.772;2022-11-03T11:26:13;6.82;;;4.28;;
11016;SDS011;54687;50.800;6.772;2022-11-03T11:36:00;10.00;;;5.32;;
11016;SDS011;54687;50.800;6.772;2022-11-03T11:47:44;9.25;;;5.70;;
11016;SDS011;54687;50.800;6.772;2022-11-03T11:50:19;9.25;;;4.93;;
11016;SDS011;54687;50.800;6.772;2022-11-03T11:52:49;8.93;;;4.05;;
11016;SDS011;54687;50.800;6.772;2022-11-03T11:55:24;9.68;;;4.75;;
11016;SDS011;54687;50.800;6.772;2022-11-03T11:57:55;6.63;;;4.22;;
11016;SDS011;54687;50.800;6.772;2022-11-03T12:00:24;6.57;;;3.63;;
11016;SDS011;54687;50.800;6.772;2022-11-03T12:02:52;9.90;;;4.43;;
11016;SDS011;54687;50.800;6.772;2022-11-03T12:05:21;7.18;;;3.85;;
11016;SDS011;54687;50.800;6.772;2022-11-03T12:07:52;10.05;;;6.18;;
11016;SDS011;54687;50.800;6.772;2022-11-03T12:10:20;9.57;;;5.97;;
11016;SDS011;54687;50.800;6.772;2022-11-03T12:12:50;6.78;;;3.97;;
11016;SDS011;54687;50.800;6.772;2022-11-03T12:18:28;9.60;;;6.38;;
11016;SDS011;54687;50.800;6.772;2022-11-03T12:21:00;10.57;;;5.53;;
11016;SDS011;54687;50.800;6.772;2022-11-03T12:23:31;10.75;;;6.25;;
11016;SDS011;54687;50.800;6.772;2022-11-03T12:26:02;12.38;;;5.55;;
11016;SDS011;54687;50.800;6.772;2022-11-03T12:28:30;15.00;;;7.13;;
11016;SDS011;54687;50.800;6.772;2022-11-03T12:30:57;12.30;;;7.63;;
11016;SDS011;54687;50.800;6.772;2022-11-03T12:33:25;7.22;;;4.72;;
11016;SDS011;54687;50.800;6.772;2022-11-03T12:35:52;10.27;;;5.20;;
11016;SDS011;54687;50.800;6.772;2022-11-03T12:38:20;10.07;;;6.60;;
11016;SDS011;54687;50.800;6.772;2022-11-03T12:40:47;13.90;;;6.22;;
11016;SDS011;54687;50.800;6.772;2022-11-03T12:43:13;13.80;;;5.15;;
11016;SDS011;54687;50.800;6.772;2022-11-03T12:45:40;11.40;;;7.15;;
11016;SDS011;54687;50.800;6.772;2022-11-03T12:48:10;13.90;;;7.78;;
11016;SDS011;54687;50.800;6.772;2022-11-03T12:50:36;16.05;;;9.13;;
11016;SDS011;54687;50.800;6.772;2022-11-03T12:53:04;10.23;;;7.55;;
11016;SDS011;54687;50.800;6.772;2022-11-03T12:55:33;11.38;;;7.32;;
11016;SDS011;54687;50.800;6.772;2022-11-03T12:57:59;13.70;;;7.18;;
11016;SDS011;54687;50.800;6.772;2022-11-03T13:00:27;9.48;;;6.30;;
11016;SDS011;54687;50.800;6.772;2022-11-03T13:02:54;9.30;;;5.60;;
11016;SDS011;54687;50.800;6.772;2022-11-03T13:05:21;7.20;;;4.68;;
11016;SDS011;54687;50.800;6.772;2022-11-03T13:07:47;5.05;;;3.88;;
11016;SDS011;54687;50.800;6.772;2022-11-03T13:10:14;6.72;;;3.50;;
11016;SDS011;54687;50.800;6.772;2022-11-03T13:12:43;4.88;;;2.80;;
11016;SDS011;54687;50.800;6.772;2022-11-03T13:15:10;5.35;;;3.00;;
11016;SDS011;54687;50.800;6.772;2022-11-03T13:17:40;9.48;;;2.90;;
11016;SDS011;54687;50.800;6.772;2022-11-03T13:20:08;4.63;;;2.42;;
11016;SDS011;54687;50.800;6.772;2022-11-03T13:22:36;5.50;;;2.60;;
11016;SDS011;54687;50.800;6.772;2022-11-03T13:25:04;5.60;;;3.05;;
11016;SDS011;54687;50.800;6.772;2022-11-03T13:27:31;4.10;;;2.63;;
11016;SDS011;54687;50.800;6.772;2022-11-03T13:29:59;4.35;;;2.72;;
11016;SDS011;54687;50.800;6.772;2022-11-03T13:32:26;4.97;;;2.75;;
11016;SDS011;54687;50.800;6.772;2022-11-03T13:34:53;5.20;;;2.75;;
11016;SDS011;54687;50.800;6.772;2022-11-03T13:37:19;7.50;;;3.55;;
11016;SDS011;54687;50.800;6.772;2022-11-03T13:39:46;3.72;;;2.70;;
11016;SDS011;54687;50.800;6.772;2022-11-03T13:42:13;5.65;;;2.63;;
11016;SDS011;54687;50.800;6.772;2022-11-03T13:44:40;6.97;;;2.53;;
11016;SDS011;54687;50.800;6.772;2022-11-03T13:47:08;4.25;;;2.65;;
11016;SDS011;54687;50.800;6.772;2022-11-03T13:49:35;5.40;;;2.75;;
11016;SDS011;54687;50.800;6.772;2022-11-03T13:52:01;3.70;;;2.53;;
11016;SDS011;54687;50.800;6.772;2022-11-03T13:54:28;4.35;;;2.47;;
11016;SDS011;54687;50.800;6.772;2022-11-03T13:56:55;6.35;;;2.92;;
11016;SDS011;54687;50.800;6.772;2022-11-03T13:59:22;5.28;;;2.90;;
11016;SDS011;54687;50.800;6.772;2022-11-03T14:01:48;5.00;;;2.67;;
11016;SDS011;54687;50.800;6.772;2022-11-03T14:04:16;5.03;;;2.67;;
11016;SDS011;54687;50.800;6.772;2022-11-03T14:06:44;6.47;;;3.50;;
11016;SDS011;54687;50.800;6.772;2022-11-03T14:09:11;6.10;;;3.00;;
11016;SDS011;54687;50.800;6.772;2022-11-03T14:11:37;6.10;;;2.90;;
11016;SDS011;54687;50.800;6.772;2022-11-03T14:14:21;4.47;;;2.47;;
11016;SDS011;54687;50.800;6.772;2022-11-03T14:16:48;5.32;;;3.13;;
11016;SDS011;54687;50.800;6.772;2022-11-03T14:19:16;3.55;;;2.50;;
11016;SDS011;54687;50.800;6.772;2022-11-03T14:21:43;3.65;;;2.58;;
11016;SDS011;54687;50.800;6.772;2022-11-03T14:24:09;6.00;;;2.80;;
11016;SDS011;54687;50.800;6.772;2022-11-03T14:26:36;6.18;;;3.53;;
11016;SDS011;54687;50.800;6.772;2022-11-03T14:29:05;3.55;;;2.40;;
11016;SDS011;54687;50.800;6.772;2022-11-03T14:31:32;5.78;;;3.00;;
11016;SDS011;54687;50.800;6.772;2022-11-03T14:33:59;8.82;;;3.17;;
11016;SDS011;54687;50.800;6.772;2022-11-03T14:36:27;7.20;;;3.20;;
11016;SDS011;54687;50.800;6.772;2022-11-03T14:38:53;5.18;;;2.88;;
11016;SDS011;54687;50.800;6.772;2022-11-03T14:41:20;4.80;;;2.80;;
11016;SDS011;54687;50.800;6.772;2022-11-03T14:44:05;5.53;;;2.80;;
11016;SDS011;54687;50.800;6.772;2022-11-03T14:46:31;3.70;;;2.30;;
11016;SDS011;54687;50.800;6.772;2022-11-03T14:48:58;6.75;;;3.00;;
11016;SDS011;54687;50.800;6.772;2022-11-03T14:51:27;6.75;;;3.67;;
11016;SDS011;54687;50.800;6.772;2022-11-03T14:53:54;4.28;;;2.80;;
11016;SDS011;54687;50.800;6.772;2022-11-03T14:56:21;3.67;;;2.40;;
11016;SDS011;54687;50.800;6.772;2022-11-03T14:58:48;3.72;;;2.50;;
11016;SDS011;54687;50.800;6.772;2022-11-03T15:01:15;3.90;;;2.25;;
11016;SDS011;54687;50.800;6.772;2022-11-03T15:03:41;4.78;;;3.20;;
11016;SDS011;54687;50.800;6.772;2022-11-03T15:06:09;4.35;;;2.50;;
11016;SDS011;54687;50.800;6.772;2022-11-03T15:08:37;5.20;;;2.40;;
11016;SDS011;54687;50.800;6.772;2022-11-03T15:11:05;3.20;;;2.70;;
11016;SDS011;54687;50.800;6.772;2022-11-03T15:13:34;5.45;;;3.90;;
11016;SDS011;54687;50.800;6.772;2022-11-03T15:16:01;3.55;;;3.08;;
11016;SDS011;54687;50.800;6.772;2022-11-03T15:18:27;4.18;;;3.13;;
11016;SDS011;54687;50.800;6.772;2022-11-03T15:20:54;4.03;;;3.13;;
11016;SDS011;54687;50.800;6.772;2022-11-03T15:23:21;5.07;;;3.97;;
11016;SDS011;54687;50.800;6.772;2022-11-03T15:25:49;4.82;;;3.40;;
11016;SDS011;54687;50.800;6.772;2022-11-03T15:28:15;4.38;;;3.33;;
11016;SDS011;54687;50.800;6.772;2022-11-03T15:30:42;4.63;;;3.67;;